createdAt,value
2018-02-11T00:01:27.372Z,5.00
2018-02-11T00:03:55.250Z,5.00
2018-02-11T00:06:23.906Z,4.90
2018-02-11T00:08:51.738Z,5.00
2018-02-11T00:11:19.622Z,5.00
2018-02-11T00:13:47.374Z,5.00
2018-02-11T00:16:15.249Z,5.00
2018-02-11T00:18:43.127Z,5.00
2018-02-11T00:21:10.893Z,5.00
2018-02-11T00:23:38.734Z,4.90
2018-02-11T00:26:06.349Z,4.90
2018-02-11T00:28:34.184Z,4.90
2018-02-11T00:31:01.890Z,4.90
2018-02-11T00:33:29.549Z,4.90
2018-02-11T00:35:58.017Z,5.00
2018-02-11T00:38:25.698Z,5.00
2018-02-11T00:40:54.131Z,5.10
2018-02-11T00:43:21.895Z,5.10
2018-02-11T00:45:49.598Z,5.10
2018-02-11T00:48:18.139Z,5.10
2018-02-11T00:50:45.904Z,5.00
2018-02-11T00:53:13.670Z,5.00
2018-02-11T00:55:41.374Z,5.00
2018-02-11T00:58:09.813Z,5.10
2018-02-11T01:00:38.441Z,5.20
2018-02-11T01:03:06.874Z,5.00
2018-02-11T01:05:34.536Z,5.00
2018-02-11T01:08:02.246Z,5.10
2018-02-11T01:10:30.635Z,5.00
2018-02-11T01:12:59.102Z,5.00
2018-02-11T01:15:27.584Z,5.00
2018-02-11T01:17:56.019Z,5.00
2018-02-11T01:20:23.680Z,5.00
2018-02-11T01:22:51.202Z,5.00
2018-02-11T01:25:18.902Z,5.10
2018-02-11T01:27:46.610Z,5.00
2018-02-11T01:30:15.146Z,5.10
2018-02-11T01:32:42.850Z,5.10
2018-02-11T01:35:11.217Z,5.10
2018-02-11T01:37:38.849Z,5.10
2018-02-11T01:40:06.553Z,5.00
2018-02-11T01:42:35.093Z,4.90
2018-02-11T01:45:02.857Z,4.90
2018-02-11T01:47:30.621Z,5.00
2018-02-11T01:50:10.206Z,5.00
2018-02-11T01:52:38.686Z,5.00
2018-02-11T01:55:07.226Z,5.00
2018-02-11T01:57:34.930Z,5.00
2018-02-11T02:00:03.574Z,4.90
2018-02-11T02:02:31.348Z,4.90
2018-02-11T02:04:59.037Z,4.90
2018-02-11T02:07:27.582Z,5.00
2018-02-11T02:09:55.244Z,5.00
2018-02-11T02:12:22.950Z,5.00
2018-02-11T02:14:51.426Z,4.90
2018-02-11T02:17:19.710Z,4.90
2018-02-11T02:19:48.186Z,4.90
2018-02-11T02:22:15.845Z,4.90
2018-02-11T02:24:44.333Z,4.90
2018-02-11T02:27:12.766Z,5.00
2018-02-11T02:29:40.398Z,5.00
2018-02-11T02:32:08.030Z,5.00
2018-02-11T02:34:36.571Z,5.00
2018-02-11T02:37:04.278Z,5.00
2018-02-11T02:39:32.758Z,4.90
2018-02-11T02:42:01.297Z,4.90
2018-02-11T02:44:28.910Z,4.90
2018-02-11T02:46:56.530Z,4.90
2018-02-11T02:49:24.179Z,4.90
2018-02-11T02:51:51.890Z,4.90
2018-02-11T02:54:20.424Z,4.90
2018-02-11T02:56:48.131Z,4.90
2018-02-11T02:59:16.670Z,5.00
2018-02-11T03:01:44.331Z,4.90
2018-02-11T03:04:11.992Z,4.90
2018-02-11T03:06:39.698Z,4.90
2018-02-11T03:09:08.135Z,4.90
2018-02-11T03:11:35.726Z,4.90
2018-02-11T03:14:03.393Z,4.90
2018-02-11T03:16:31.062Z,4.90
2018-02-11T03:18:59.347Z,4.90
2018-02-11T03:21:27.822Z,5.00
2018-02-11T03:23:56.302Z,4.90
2018-02-11T03:26:24.737Z,4.90
2018-02-11T03:28:52.455Z,4.90
2018-02-11T03:31:20.879Z,4.90
2018-02-11T03:33:48.582Z,4.90
2018-02-11T03:36:17.066Z,5.00
2018-02-11T03:38:45.605Z,4.90
2018-02-11T03:41:13.369Z,5.00
2018-02-11T03:43:41.132Z,4.90
2018-02-11T03:46:08.795Z,4.90
2018-02-11T03:48:36.497Z,5.00
2018-02-11T03:51:04.985Z,5.00
2018-02-11T03:53:33.521Z,5.00
2018-02-11T03:56:01.225Z,5.00
2018-02-11T03:58:29.589Z,5.00
2018-02-11T04:00:57.262Z,5.00
2018-02-11T04:03:25.806Z,5.00
2018-02-11T04:05:53.467Z,5.00
2018-02-11T04:08:21.174Z,5.00
2018-02-11T04:10:49.653Z,5.00
2018-02-11T04:13:18.193Z,5.00
2018-02-11T04:15:45.897Z,5.00
2018-02-11T04:18:14.437Z,4.90
2018-02-11T04:20:42.145Z,4.90
2018-02-11T04:23:10.580Z,5.00
2018-02-11T04:25:38.798Z,4.90
2018-02-11T04:28:07.277Z,5.00
2018-02-11T04:30:35.716Z,4.90
2018-02-11T04:33:03.582Z,4.90
2018-02-11T04:35:31.347Z,5.00
2018-02-11T04:37:59.008Z,5.00
2018-02-11T04:40:26.772Z,4.90
2018-02-11T04:42:54.478Z,5.00
2018-02-11T04:45:23.061Z,5.00
2018-02-11T04:47:51.498Z,5.00
2018-02-11T04:50:19.262Z,5.00
2018-02-11T04:52:46.924Z,5.00
2018-02-11T04:55:14.585Z,5.00
2018-02-11T04:57:42.357Z,5.00
2018-02-11T05:00:10.055Z,5.10
2018-02-11T05:02:38.595Z,5.10
2018-02-11T05:05:06.298Z,5.00
2018-02-11T05:07:34.778Z,5.00
2018-02-11T05:10:02.438Z,5.00
2018-02-11T05:12:30.265Z,5.00
2018-02-11T05:14:57.970Z,5.00
2018-02-11T05:17:26.510Z,4.90
2018-02-11T05:19:54.479Z,5.00
2018-02-11T05:22:22.230Z,5.00
2018-02-11T05:24:49.838Z,5.00
2018-02-11T05:27:17.502Z,5.00
2018-02-11T05:29:45.945Z,4.90
2018-02-11T05:32:13.649Z,4.90
2018-02-11T05:34:41.307Z,4.80
2018-02-11T05:37:09.749Z,4.80
2018-02-11T05:39:37.513Z,4.80
2018-02-11T05:42:05.222Z,4.70
2018-02-11T05:44:33.758Z,4.70
2018-02-11T05:47:01.419Z,4.70
2018-02-11T05:49:29.125Z,4.60
2018-02-11T05:51:57.489Z,4.70
2018-02-11T05:54:25.165Z,4.70
2018-02-11T05:56:53.603Z,4.50
2018-02-11T05:59:21.264Z,4.50
2018-02-11T06:01:48.969Z,4.50
2018-02-11T06:04:18.533Z,4.60
2018-02-11T06:06:46.297Z,4.50
2018-02-11T06:09:14.006Z,4.50
2018-02-11T06:11:42.543Z,4.60
2018-02-11T06:14:10.204Z,4.60
2018-02-11T06:16:37.910Z,4.60
2018-02-11T06:19:06.389Z,4.60
2018-02-11T06:21:34.929Z,4.50
2018-02-11T06:24:02.694Z,4.50
2018-02-11T06:26:32.404Z,4.50
2018-02-11T06:29:00.114Z,4.40
2018-02-11T06:31:28.649Z,4.50
2018-02-11T06:33:56.310Z,4.50
2018-02-11T06:36:23.972Z,4.60
2018-02-11T06:38:51.678Z,4.50
2018-02-11T06:41:20.217Z,4.50
2018-02-11T06:43:47.879Z,4.50
2018-02-11T06:46:15.582Z,4.50
2018-02-11T06:48:44.066Z,4.60
2018-02-11T06:51:12.502Z,4.50
2018-02-11T06:53:40.279Z,4.50
2018-02-11T06:56:08.133Z,4.60
2018-02-11T06:58:35.826Z,4.50
2018-02-11T07:01:03.490Z,4.50
2018-02-11T07:03:31.157Z,4.50
2018-02-11T07:05:59.641Z,4.50
2018-02-11T07:08:28.182Z,4.50
2018-02-11T07:10:55.946Z,4.50
2018-02-11T07:13:23.654Z,4.50
2018-02-11T07:15:52.089Z,4.50
2018-02-11T07:18:19.852Z,4.50
2018-02-11T07:20:47.558Z,4.40
2018-02-11T07:23:16.097Z,4.50
2018-02-11T07:25:43.862Z,4.50
2018-02-11T07:28:11.626Z,4.60
2018-02-11T07:30:39.330Z,4.50
2018-02-11T07:33:07.738Z,4.40
2018-02-11T07:35:35.430Z,4.40
2018-02-11T07:38:03.296Z,4.30
2018-02-11T07:40:31.062Z,4.30
2018-02-11T07:42:58.824Z,4.30
2018-02-11T07:45:26.530Z,4.30
2018-02-11T07:47:55.010Z,4.30
2018-02-11T07:50:23.490Z,4.30
2018-02-11T07:52:51.929Z,4.30
2018-02-11T07:55:19.433Z,4.20
2018-02-11T07:57:47.910Z,4.30
2018-02-11T08:00:16.450Z,4.20
2018-02-11T08:02:44.157Z,4.20
2018-02-11T08:05:12.638Z,4.20
2018-02-11T08:07:41.176Z,4.20
2018-02-11T08:10:08.890Z,4.20
2018-02-11T08:12:37.362Z,4.20
2018-02-11T08:15:05.799Z,4.30
2018-02-11T08:17:33.462Z,4.30
2018-02-11T08:20:01.274Z,4.30
2018-02-11T08:22:29.754Z,4.20
2018-02-11T08:24:58.186Z,4.20
2018-02-11T08:27:25.850Z,4.20
2018-02-11T08:29:53.613Z,4.20
2018-02-11T08:32:21.480Z,4.10
2018-02-11T08:34:49.243Z,4.30
2018-02-11T08:37:16.946Z,4.20
2018-02-11T08:39:45.488Z,4.20
2018-02-11T08:42:13.150Z,4.20
2018-02-11T08:44:40.914Z,4.30
2018-02-11T08:47:08.618Z,4.20
2018-02-11T08:49:37.158Z,4.30
2018-02-11T08:52:05.743Z,4.30
2018-02-11T08:54:33.446Z,4.30
2018-02-11T08:57:01.925Z,4.20
2018-02-11T08:59:30.366Z,4.30
2018-02-11T09:01:58.069Z,4.30
2018-02-11T09:04:26.508Z,4.30
2018-02-11T09:06:54.170Z,4.30
2018-02-11T09:09:21.974Z,4.30
2018-02-11T09:11:50.458Z,4.40
2018-02-11T09:14:18.998Z,4.40
2018-02-11T09:16:46.660Z,4.40
2018-02-11T09:19:14.424Z,4.40
2018-02-11T09:21:42.189Z,4.30
2018-02-11T09:24:09.962Z,4.30
2018-02-11T09:26:37.658Z,4.30
2018-02-11T09:29:06.095Z,4.40
2018-02-11T09:31:33.802Z,4.40
2018-02-11T09:34:02.237Z,4.40
2018-02-11T09:36:29.942Z,4.40
2018-02-11T09:38:58.482Z,4.30
2018-02-11T09:41:26.249Z,4.30
2018-02-11T09:43:54.113Z,4.40
2018-02-11T09:46:21.878Z,4.50
2018-02-11T09:48:49.539Z,4.50
2018-02-11T09:51:17.304Z,4.50
2018-02-11T09:53:45.067Z,4.40
2018-02-11T09:56:12.933Z,4.40
2018-02-11T09:58:40.708Z,4.50
2018-02-11T10:01:08.464Z,4.60
2018-02-11T10:03:36.226Z,4.50
2018-02-11T10:06:04.095Z,4.50
2018-02-11T10:08:31.959Z,4.60
2018-02-11T10:10:59.621Z,4.50
2018-02-11T10:13:27.326Z,4.40
2018-02-11T10:15:55.810Z,4.50
2018-02-11T10:18:24.246Z,4.40
2018-02-11T10:20:52.008Z,4.40
2018-02-11T10:23:19.874Z,4.40
2018-02-11T10:25:47.536Z,4.50
2018-02-11T10:28:15.246Z,4.50
2018-02-11T10:30:43.678Z,4.50
2018-02-11T10:33:11.443Z,4.50
2018-02-11T10:35:39.206Z,4.50
2018-02-11T10:38:06.910Z,4.40
2018-02-11T10:40:35.349Z,4.50
2018-02-11T10:43:03.011Z,4.50
2018-02-11T10:45:30.718Z,4.50
2018-02-11T10:47:59.153Z,4.60
2018-02-11T10:50:26.860Z,4.60
2018-02-11T10:52:55.337Z,4.50
2018-02-11T10:55:23.776Z,4.60
2018-02-11T10:57:51.541Z,4.50
2018-02-11T11:00:19.305Z,4.50
2018-02-11T11:02:47.069Z,4.50
2018-02-11T11:05:14.771Z,4.50
2018-02-11T11:07:43.212Z,4.50
2018-02-11T11:10:11.078Z,4.40
2018-02-11T11:12:38.704Z,4.50
2018-02-11T11:15:06.709Z,4.50
2018-02-11T11:17:34.371Z,4.50
2018-02-11T11:20:02.074Z,4.60
2018-02-11T11:22:30.561Z,4.50
2018-02-11T11:24:58.961Z,4.50
2018-02-11T11:27:26.659Z,4.50
2018-02-11T11:29:54.358Z,4.60
2018-02-11T11:32:22.905Z,4.70
2018-02-11T11:34:50.769Z,4.60
2018-02-11T11:37:20.108Z,4.50
2018-02-11T11:39:48.149Z,4.60
2018-02-11T11:42:15.894Z,4.70
2018-02-11T11:44:43.654Z,4.70
2018-02-11T11:47:11.402Z,4.70
2018-02-11T11:49:39.258Z,4.80
2018-02-11T11:52:07.126Z,4.80
2018-02-11T11:54:34.990Z,4.80
2018-02-11T11:57:02.510Z,4.70
2018-02-11T11:59:30.273Z,4.60
2018-02-11T12:01:58.018Z,4.50
2018-02-11T12:04:25.538Z,4.40
2018-02-11T12:06:53.390Z,4.50
2018-02-11T12:09:21.902Z,4.60
2018-02-11T12:11:49.662Z,4.60
2018-02-11T12:14:17.514Z,4.50
2018-02-11T12:16:45.381Z,4.60
2018-02-11T12:19:13.255Z,4.60
2018-02-11T12:21:41.118Z,4.60
2018-02-11T12:24:08.890Z,4.70
2018-02-11T12:26:36.887Z,4.70
2018-02-11T12:29:04.773Z,4.70
2018-02-11T12:31:32.638Z,4.80
2018-02-11T12:34:00.522Z,4.80
2018-02-11T12:36:29.046Z,4.80
2018-02-11T12:38:56.814Z,4.80
2018-02-11T12:41:24.592Z,4.80
2018-02-11T12:43:52.466Z,4.80
2018-02-11T12:46:19.977Z,4.80
2018-02-11T12:48:48.599Z,4.80
2018-02-11T12:51:16.466Z,4.80
2018-02-11T12:53:44.338Z,4.80
2018-02-11T12:56:12.206Z,4.80
2018-02-11T12:58:40.077Z,4.80
2018-02-11T13:01:07.939Z,4.80
2018-02-11T13:03:36.621Z,5.00
2018-02-11T13:06:04.397Z,5.00
2018-02-11T13:08:32.279Z,5.10
2018-02-11T13:11:00.142Z,5.20
2018-02-11T13:13:28.010Z,5.10
2018-02-11T13:15:55.883Z,5.20
2018-02-11T13:18:23.746Z,5.20
2018-02-11T13:20:51.610Z,5.20
2018-02-11T13:23:19.353Z,5.20
2018-02-11T13:25:46.866Z,5.30
2018-02-11T13:28:14.730Z,5.20
2018-02-11T13:30:42.590Z,5.20
2018-02-11T13:33:11.110Z,5.20
2018-02-11T13:35:38.874Z,5.20
2018-02-11T13:38:06.902Z,5.20
2018-02-11T13:40:35.546Z,5.20
2018-02-11T13:43:03.299Z,5.20
2018-02-11T13:45:31.046Z,5.20
2018-02-11T13:47:58.955Z,5.30
2018-02-11T13:50:26.786Z,5.30
2018-02-11T13:52:54.531Z,5.30
2018-02-11T13:55:22.409Z,5.40
2018-02-11T13:57:50.158Z,5.30
2018-02-11T14:00:18.883Z,5.30
2018-02-11T14:02:46.630Z,5.40
2018-02-11T14:05:14.504Z,5.30
2018-02-11T14:07:42.138Z,5.30
2018-02-11T14:10:10.739Z,5.40
2018-02-11T14:12:38.479Z,5.40
2018-02-11T14:15:07.099Z,5.30
2018-02-11T14:17:34.969Z,5.30
2018-02-11T14:20:02.714Z,5.40
2018-02-11T14:22:30.586Z,5.30
2018-02-11T14:24:58.450Z,5.30
2018-02-11T14:27:26.321Z,5.30
2018-02-11T14:29:54.207Z,5.30
2018-02-11T14:32:21.981Z,5.40
2018-02-11T14:34:49.746Z,5.40
2018-02-11T14:37:17.494Z,5.50
2018-02-11T14:39:45.390Z,5.50
2018-02-11T14:42:13.258Z,5.40
2018-02-11T14:44:41.006Z,5.40
2018-02-11T14:47:08.894Z,5.40
2018-02-11T14:49:36.650Z,5.40
2018-02-11T14:52:04.534Z,5.50
2018-02-11T14:54:33.050Z,5.40
2018-02-11T14:57:00.909Z,5.40
2018-02-11T14:59:28.701Z,5.40
2018-02-11T15:01:56.210Z,5.50
2018-02-11T15:04:24.850Z,5.50
2018-02-11T15:06:52.714Z,5.50
2018-02-11T15:09:20.590Z,5.50
2018-02-11T15:11:48.359Z,5.50
2018-02-11T15:14:16.223Z,5.50
2018-02-11T15:16:44.089Z,5.50
2018-02-11T15:19:11.962Z,5.50
2018-02-11T15:21:39.706Z,5.40
2018-02-11T15:24:07.470Z,5.40
2018-02-11T15:26:35.342Z,5.50
2018-02-11T15:29:03.206Z,5.40
2018-02-11T15:31:30.967Z,5.40
2018-02-11T15:33:58.719Z,5.50
2018-02-11T15:36:26.595Z,5.50
2018-02-11T15:38:54.459Z,5.40
2018-02-11T15:41:22.222Z,5.50
2018-02-11T15:43:50.098Z,5.40
2018-02-11T15:46:17.962Z,5.40
2018-02-11T15:48:45.833Z,5.40
2018-02-11T15:51:13.704Z,5.40
2018-02-11T15:53:41.566Z,5.40
2018-02-11T15:56:09.450Z,5.40
2018-02-11T15:58:37.306Z,5.40
2018-02-11T16:01:05.182Z,5.40
2018-02-11T16:03:32.926Z,5.40
2018-02-11T16:06:00.679Z,5.40
2018-02-11T16:08:28.191Z,5.40
2018-02-11T16:10:56.854Z,5.40
2018-02-11T16:13:24.752Z,5.40
2018-02-11T16:15:53.386Z,5.40
2018-02-11T16:18:21.134Z,5.40
2018-02-11T16:20:48.891Z,5.40
2018-02-11T16:23:16.742Z,5.40
2018-02-11T16:25:44.630Z,5.40
2018-02-11T16:28:12.304Z,5.40
2018-02-11T16:30:39.844Z,5.30
2018-02-11T16:33:07.628Z,5.40
2018-02-11T16:35:35.392Z,5.40
2018-02-11T16:38:03.249Z,5.40
2018-02-11T16:40:30.889Z,5.30
2018-02-11T16:42:58.683Z,5.40
2018-02-11T16:45:26.390Z,5.40
2018-02-11T16:47:54.938Z,5.40
2018-02-11T16:50:22.795Z,5.40
2018-02-11T16:52:50.458Z,5.30
2018-02-11T16:55:17.994Z,5.40
2018-02-11T16:57:45.781Z,5.40
2018-02-11T17:00:13.485Z,5.30
2018-02-11T17:02:42.026Z,5.30
2018-02-11T17:05:09.686Z,5.30
2018-02-11T17:07:37.498Z,5.40
2018-02-11T17:10:05.932Z,5.40
2018-02-11T17:12:33.542Z,5.40
2018-02-11T17:15:02.014Z,5.40
2018-02-11T17:17:30.398Z,5.40
2018-02-11T17:19:58.877Z,5.40
2018-02-11T17:22:27.241Z,5.30
2018-02-11T17:24:55.076Z,5.30
2018-02-11T17:27:22.782Z,5.30
2018-02-11T17:29:51.094Z,5.40
2018-02-11T17:32:18.826Z,5.40
2018-02-11T17:34:47.302Z,5.40
2018-02-11T17:37:15.641Z,5.40
2018-02-11T17:39:43.401Z,5.40
2018-02-11T17:42:11.063Z,5.40
2018-02-11T17:44:38.828Z,5.40
2018-02-11T17:47:06.489Z,5.40
2018-02-11T17:49:34.253Z,5.40
2018-02-11T17:52:01.959Z,5.40
2018-02-11T17:54:30.498Z,5.40
2018-02-11T17:56:58.250Z,5.40
2018-02-11T17:59:25.924Z,5.40
2018-02-11T18:01:53.452Z,5.40
2018-02-11T18:04:21.247Z,5.50
2018-02-11T18:06:48.874Z,5.40
2018-02-11T18:09:16.571Z,5.40
2018-02-11T18:11:45.101Z,5.40
2018-02-11T18:14:13.420Z,5.40
2018-02-11T18:16:41.129Z,5.40
2018-02-11T18:19:09.676Z,5.40
2018-02-11T18:21:37.378Z,5.50
2018-02-11T18:24:05.713Z,5.50
2018-02-11T18:26:33.479Z,5.50
2018-02-11T18:29:01.190Z,5.50
2018-02-11T18:31:29.724Z,5.30
2018-02-11T18:33:57.430Z,5.30
2018-02-11T18:36:25.769Z,5.40
2018-02-11T18:38:53.425Z,5.40
2018-02-11T18:41:21.129Z,5.40
2018-02-11T18:43:49.609Z,5.40
2018-02-11T18:46:18.051Z,5.40
2018-02-11T18:48:45.918Z,5.40
2018-02-11T18:51:13.465Z,5.40
2018-02-11T18:53:41.125Z,5.40
2018-02-11T18:56:08.838Z,5.30
2018-02-11T18:58:37.322Z,5.30
2018-02-11T19:01:05.798Z,5.40
2018-02-11T19:03:33.430Z,5.30
2018-02-11T19:06:01.083Z,5.20
2018-02-11T19:08:28.794Z,5.20
2018-02-11T19:10:57.226Z,5.10
2018-02-11T19:13:24.990Z,5.10
2018-02-11T19:15:52.696Z,5.00
2018-02-11T19:18:20.970Z,5.00
2018-02-11T19:20:49.511Z,5.10
2018-02-11T19:23:17.275Z,5.10
2018-02-11T19:25:44.937Z,5.10
2018-02-11T19:28:12.646Z,5.10
2018-02-11T19:30:40.123Z,5.10
2018-02-11T19:33:07.746Z,5.10
2018-02-11T19:35:35.417Z,5.10
2018-02-11T19:38:03.245Z,5.20
2018-02-11T19:40:30.990Z,5.10
2018-02-11T19:42:58.721Z,4.90
2018-02-11T19:45:27.242Z,4.70
2018-02-11T19:47:55.162Z,4.70
2018-02-11T19:50:23.006Z,4.50
2018-02-11T19:52:50.755Z,4.50
2018-02-11T19:55:18.511Z,4.40
2018-02-11T19:57:46.333Z,4.30
2018-02-11T20:00:14.851Z,4.50
2018-02-11T20:02:42.612Z,4.50
2018-02-11T20:05:10.370Z,4.50
2018-02-11T20:07:38.233Z,4.70
2018-02-11T20:10:06.106Z,4.80
2018-02-11T20:12:33.866Z,4.90
2018-02-11T20:15:01.614Z,4.90
2018-02-11T20:17:29.362Z,4.80
2018-02-11T20:19:57.882Z,4.90
2018-02-11T20:22:25.622Z,4.90
2018-02-11T20:24:53.490Z,5.00
2018-02-11T20:27:21.358Z,5.00
2018-02-11T20:29:49.230Z,4.90
2018-02-11T20:32:17.850Z,5.00
2018-02-11T20:34:45.598Z,5.00
2018-02-11T20:37:13.458Z,5.10
2018-02-11T20:39:41.326Z,5.10
2018-02-11T20:42:09.105Z,5.20
2018-02-11T20:44:36.971Z,5.20
2018-02-11T20:47:04.731Z,5.20
2018-02-11T20:49:32.603Z,5.20
2018-02-11T20:52:00.458Z,5.20
2018-02-11T20:54:28.250Z,5.20
2018-02-11T20:56:56.018Z,5.20
2018-02-11T20:59:23.790Z,5.20
2018-02-11T21:01:51.553Z,5.20
2018-02-11T21:04:19.314Z,5.10
2018-02-11T21:06:47.169Z,5.00
2018-02-11T21:09:14.916Z,5.00
2018-02-11T21:11:42.695Z,4.90
2018-02-11T21:14:10.438Z,4.90
2018-02-11T21:16:38.190Z,5.00
2018-02-11T21:19:05.934Z,5.00
2018-02-11T21:21:33.690Z,5.10
2018-02-11T21:24:02.198Z,5.10
2018-02-11T21:26:30.057Z,5.10
2018-02-11T21:28:57.921Z,5.10
2018-02-11T21:31:25.510Z,5.00
2018-02-11T21:33:53.218Z,4.90
2018-02-11T21:36:21.655Z,4.90
2018-02-11T21:38:49.332Z,4.90
2018-02-11T21:41:16.978Z,4.90
2018-02-11T21:43:44.682Z,5.00
2018-02-11T21:46:12.998Z,4.80
2018-02-11T21:48:40.615Z,4.80
2018-02-11T21:51:09.102Z,4.90
2018-02-11T21:53:37.645Z,4.90
2018-02-11T21:56:05.610Z,4.90
2018-02-11T21:58:33.272Z,5.00
2018-02-11T22:01:01.182Z,5.00
2018-02-11T22:03:29.824Z,5.00
2018-02-11T22:05:57.533Z,4.90
2018-02-11T22:08:26.011Z,5.00
2018-02-11T22:10:54.447Z,5.00
2018-02-11T22:13:22.314Z,5.00
2018-02-11T22:15:50.018Z,5.00
2018-02-11T22:18:18.558Z,4.80
2018-02-11T22:20:46.261Z,4.80
2018-02-11T22:23:14.701Z,4.80
2018-02-11T22:25:42.569Z,4.80
2018-02-11T22:28:10.117Z,4.70
2018-02-11T22:30:37.662Z,4.70
2018-02-11T22:33:05.394Z,4.70
2018-02-11T22:35:33.828Z,4.80
2018-02-11T22:38:01.696Z,4.80
2018-02-11T22:40:29.357Z,4.80
2018-02-11T22:42:57.062Z,4.80
2018-02-11T22:45:25.500Z,4.60
2018-02-11T22:47:53.366Z,4.60
2018-02-11T22:50:21.066Z,4.60
2018-02-11T22:52:49.509Z,4.60
2018-02-11T22:55:17.171Z,4.60
2018-02-11T22:57:44.709Z,4.60
2018-02-11T23:00:12.262Z,4.50
2018-02-11T23:02:39.814Z,4.60
2018-02-11T23:05:07.366Z,4.60
2018-02-11T23:07:34.917Z,4.60
2018-02-11T23:10:03.347Z,4.60
2018-02-11T23:12:31.211Z,4.60
2018-02-11T23:14:58.913Z,4.60
2018-02-11T23:17:27.661Z,4.50
2018-02-11T23:19:55.424Z,4.40
2018-02-11T23:22:23.291Z,4.50
2018-02-11T23:24:51.058Z,4.60
2018-02-11T23:27:18.819Z,4.50
2018-02-11T23:29:46.525Z,4.50
2018-02-11T23:32:14.898Z,4.50
2018-02-11T23:34:42.623Z,4.50
2018-02-11T23:37:10.285Z,4.50
2018-02-11T23:39:38.093Z,4.50
2018-02-11T23:42:06.530Z,4.60
2018-02-11T23:44:34.399Z,4.60
2018-02-11T23:47:02.102Z,4.60
2018-02-11T23:49:30.385Z,4.60
2018-02-11T23:51:59.122Z,4.60
2018-02-11T23:54:26.646Z,4.50
2018-02-11T23:56:54.548Z,4.60
2018-02-11T23:59:22.253Z,4.60
